sensor_id;sensor_type;location;lat;lon;timestamp;temperature;humidity
18408;DHT22;9330;52.210;21.174;2023-03-01T00:00:14;-4.10;99.90
18408;DHT22;9330;52.210;21.174;2023-03-01T00:02:41;-4.10;99.90
18408;DHT22;9330;52.210;21.174;2023-03-01T00:05:08;-4.00;99.90
18408;DHT22;9330;52.210;21.174;2023-03-01T00:07:35;-4.00;99.90
18408;DHT22;9330;52.210;21.174;2023-03-01T00:10:02;-4.10;99.90
18408;DHT22;9330;52.210;21.174;2023-03-01T00:12:29;-4.10;99.90
18408;DHT22;9330;52.210;21.174;2023-03-01T00:14:59;-4.00;99.90
18408;DHT22;9330;52.210;21.174;2023-03-01T00:17:27;-3.80;99.90
18408;DHT22;9330;52.210;21.174;2023-03-01T00:19:54;-4.10;99.90
18408;DHT22;9330;52.210;21.174;2023-03-01T00:22:21;-4.00;99.90
18408;DHT22;9330;52.210;21.174;2023-03-01T00:24:48;-4.10;99.90
18408;DHT22;9330;52.210;21.174;2023-03-01T00:27:15;-4.10;99.90
18408;DHT22;9330;52.210;21.174;2023-03-01T00:29:42;-4.00;99.90
18408;DHT22;9330;52.210;21.174;2023-03-01T00:32:10;-4.10;99.90
18408;DHT22;9330;52.210;21.174;2023-03-01T00:34:37;-4.00;99.90
18408;DHT22;9330;52.210;21.174;2023-03-01T00:37:04;-4.10;99.90
18408;DHT22;9330;52.210;21.174;2023-03-01T00:39:32;-4.00;99.90
18408;DHT22;9330;52.210;21.174;2023-03-01T00:41:59;-4.00;99.90
18408;DHT22;9330;52.210;21.174;2023-03-01T00:44:26;-4.00;99.90
18408;DHT22;9330;52.210;21.174;2023-03-01T00:46:53;-4.00;99.90
18408;DHT22;9330;52.210;21.174;2023-03-01T00:49:22;-4.00;99.90
18408;DHT22;9330;52.210;21.174;2023-03-01T00:51:53;-4.00;99.90
18408;DHT22;9330;52.210;21.174;2023-03-01T00:54:20;-4.00;99.90
18408;DHT22;9330;52.210;21.174;2023-03-01T00:56:47;-4.00;99.90
18408;DHT22;9330;52.210;21.174;2023-03-01T00:59:13;-4.00;99.90
18408;DHT22;9330;52.210;21.174;2023-03-01T01:01:40;-4.00;99.90
18408;DHT22;9330;52.210;21.174;2023-03-01T01:04:10;-4.00;99.90
18408;DHT22;9330;52.210;21.174;2023-03-01T01:06:40;-4.00;99.90
18408;DHT22;9330;52.210;21.174;2023-03-01T01:09:08;-4.00;99.90
18408;DHT22;9330;52.210;21.174;2023-03-01T01:11:42;-4.00;99.90
18408;DHT22;9330;52.210;21.174;2023-03-01T01:14:10;-4.00;99.90
18408;DHT22;9330;52.210;21.174;2023-03-01T01:16:37;-4.00;99.90
18408;DHT22;9330;52.210;21.174;2023-03-01T01:19:04;-4.00;99.90
18408;DHT22;9330;52.210;21.174;2023-03-01T01:21:31;-4.00;99.90
18408;DHT22;9330;52.210;21.174;2023-03-01T01:23:59;-4.10;99.90
18408;DHT22;9330;52.210;21.174;2023-03-01T01:26:28;-4.10;99.90
18408;DHT22;9330;52.210;21.174;2023-03-01T01:28:55;-4.00;99.90
18408;DHT22;9330;52.210;21.174;2023-03-01T01:31:23;-4.10;99.90
18408;DHT22;9330;52.210;21.174;2023-03-01T01:33:50;-4.00;99.90
18408;DHT22;9330;52.210;21.174;2023-03-01T01:36:17;-4.10;99.90
18408;DHT22;9330;52.210;21.174;2023-03-01T01:38:44;-4.10;99.90
18408;DHT22;9330;52.210;21.174;2023-03-01T01:41:13;-4.10;99.90
18408;DHT22;9330;52.210;21.174;2023-03-01T01:43:42;-4.10;99.90
18408;DHT22;9330;52.210;21.174;2023-03-01T01:46:16;-4.10;99.90
18408;DHT22;9330;52.210;21.174;2023-03-01T01:48:48;-4.10;99.90
18408;DHT22;9330;52.210;21.174;2023-03-01T01:51:19;-4.10;99.90
18408;DHT22;9330;52.210;21.174;2023-03-01T01:53:53;-4.10;99.90
18408;DHT22;9330;52.210;21.174;2023-03-01T01:59:50;-4.20;99.90
18408;DHT22;9330;52.210;21.174;2023-03-01T02:02:18;-4.10;99.90
18408;DHT22;9330;52.210;21.174;2023-03-01T02:04:46;-4.20;99.90
18408;DHT22;9330;52.210;21.174;2023-03-01T02:07:17;-4.20;99.90
18408;DHT22;9330;52.210;21.174;2023-03-01T02:09:46;-4.20;99.90
18408;DHT22;9330;52.210;21.174;2023-03-01T02:12:14;-4.30;99.90
18408;DHT22;9330;52.210;21.174;2023-03-01T02:14:45;-4.30;99.90
18408;DHT22;9330;52.210;21.174;2023-03-01T02:17:12;-4.20;99.90
18408;DHT22;9330;52.210;21.174;2023-03-01T02:19:50;-4.30;99.90
18408;DHT22;9330;52.210;21.174;2023-03-01T02:22:24;-4.20;99.90
18408;DHT22;9330;52.210;21.174;2023-03-01T02:25:02;-4.40;99.90
18408;DHT22;9330;52.210;21.174;2023-03-01T02:27:37;-4.30;99.90
18408;DHT22;9330;52.210;21.174;2023-03-01T02:30:07;-4.30;99.90
18408;DHT22;9330;52.210;21.174;2023-03-01T02:32:38;-4.40;99.90
18408;DHT22;9330;52.210;21.174;2023-03-01T02:35:08;-4.30;99.90
18408;DHT22;9330;52.210;21.174;2023-03-01T02:37:35;-4.40;99.90
18408;DHT22;9330;52.210;21.174;2023-03-01T02:40:06;-4.30;99.90
18408;DHT22;9330;52.210;21.174;2023-03-01T02:42:40;-4.40;99.90
18408;DHT22;9330;52.210;21.174;2023-03-01T02:45:11;-4.40;99.90
18408;DHT22;9330;52.210;21.174;2023-03-01T02:47:38;-4.40;99.90
18408;DHT22;9330;52.210;21.174;2023-03-01T02:50:13;-4.30;99.90
18408;DHT22;9330;52.210;21.174;2023-03-01T02:52:45;-4.40;99.90
18408;DHT22;9330;52.210;21.174;2023-03-01T02:55:14;-4.30;99.90
18408;DHT22;9330;52.210;21.174;2023-03-01T02:57:44;-4.30;99.90
18408;DHT22;9330;52.210;21.174;2023-03-01T03:00:16;-4.30;99.90
18408;DHT22;9330;52.210;21.174;2023-03-01T03:02:46;-4.40;99.90
18408;DHT22;9330;52.210;21.174;2023-03-01T03:05:17;-4.40;99.90
18408;DHT22;9330;52.210;21.174;2023-03-01T03:07:46;-4.40;99.90
18408;DHT22;9330;52.210;21.174;2023-03-01T03:10:15;-4.40;99.90
18408;DHT22;9330;52.210;21.174;2023-03-01T03:12:48;-4.30;99.90
18408;DHT22;9330;52.210;21.174;2023-03-01T03:15:17;-4.30;99.90
18408;DHT22;9330;52.210;21.174;2023-03-01T03:17:46;-4.30;99.90
18408;DHT22;9330;52.210;21.174;2023-03-01T03:20:18;-4.40;99.90
18408;DHT22;9330;52.210;21.174;2023-03-01T03:22:46;-4.30;99.90
18408;DHT22;9330;52.210;21.174;2023-03-01T03:25:13;-4.30;99.90
18408;DHT22;9330;52.210;21.174;2023-03-01T03:27:42;-4.30;99.90
18408;DHT22;9330;52.210;21.174;2023-03-01T03:30:11;-4.10;99.90
18408;DHT22;9330;52.210;21.174;2023-03-01T03:32:41;-4.30;99.90
18408;DHT22;9330;52.210;21.174;2023-03-01T03:35:18;-4.30;99.90
18408;DHT22;9330;52.210;21.174;2023-03-01T03:37:45;-4.20;99.90
18408;DHT22;9330;52.210;21.174;2023-03-01T03:40:32;-4.30;99.90
18408;DHT22;9330;52.210;21.174;2023-03-01T03:42:59;-4.20;99.90
18408;DHT22;9330;52.210;21.174;2023-03-01T03:45:26;-4.10;99.90
18408;DHT22;9330;52.210;21.174;2023-03-01T03:47:55;-4.20;99.90
18408;DHT22;9330;52.210;21.174;2023-03-01T03:50:21;-4.10;99.90
18408;DHT22;9330;52.210;21.174;2023-03-01T03:52:48;-4.10;99.90
18408;DHT22;9330;52.210;21.174;2023-03-01T03:55:15;-4.10;99.90
18408;DHT22;9330;52.210;21.174;2023-03-01T03:57:45;-4.10;99.90
18408;DHT22;9330;52.210;21.174;2023-03-01T04:00:18;-4.10;99.90
18408;DHT22;9330;52.210;21.174;2023-03-01T04:02:46;-4.10;99.90
18408;DHT22;9330;52.210;21.174;2023-03-01T04:05:16;-4.10;99.90
18408;DHT22;9330;52.210;21.174;2023-03-01T04:07:44;-4.10;99.90
18408;DHT22;9330;52.210;21.174;2023-03-01T04:10:14;-4.10;99.90
18408;DHT22;9330;52.210;21.174;2023-03-01T04:12:42;-3.90;99.90
18408;DHT22;9330;52.210;21.174;2023-03-01T04:15:10;-4.10;99.90
18408;DHT22;9330;52.210;21.174;2023-03-01T04:17:39;-4.00;99.90
18408;DHT22;9330;52.210;21.174;2023-03-01T04:20:08;-4.00;99.90
18408;DHT22;9330;52.210;21.174;2023-03-01T04:22:38;-4.10;99.90
18408;DHT22;9330;52.210;21.174;2023-03-01T04:25:06;-4.00;99.90
18408;DHT22;9330;52.210;21.174;2023-03-01T04:27:33;-4.10;99.90
18408;DHT22;9330;52.210;21.174;2023-03-01T04:30:00;-4.10;99.90
18408;DHT22;9330;52.210;21.174;2023-03-01T04:32:27;-4.00;99.90
18408;DHT22;9330;52.210;21.174;2023-03-01T04:34:54;-4.00;99.90
18408;DHT22;9330;52.210;21.174;2023-03-01T04:37:23;-4.10;99.90
18408;DHT22;9330;52.210;21.174;2023-03-01T04:39:52;-4.10;99.90
18408;DHT22;9330;52.210;21.174;2023-03-01T04:42:19;-4.00;99.90
18408;DHT22;9330;52.210;21.174;2023-03-01T04:44:46;-3.90;99.90
18408;DHT22;9330;52.210;21.174;2023-03-01T04:47:13;-4.00;99.90
18408;DHT22;9330;52.210;21.174;2023-03-01T04:49:40;-4.00;99.90
18408;DHT22;9330;52.210;21.174;2023-03-01T04:52:07;-4.00;99.90
18408;DHT22;9330;52.210;21.174;2023-03-01T04:54:35;-4.10;99.90
18408;DHT22;9330;52.210;21.174;2023-03-01T04:57:03;-4.00;99.90
18408;DHT22;9330;52.210;21.174;2023-03-01T04:59:30;-4.00;99.90
18408;DHT22;9330;52.210;21.174;2023-03-01T05:01:59;-4.00;99.90
18408;DHT22;9330;52.210;21.174;2023-03-01T05:04:26;-4.00;99.90
18408;DHT22;9330;52.210;21.174;2023-03-01T05:06:55;-4.00;99.90
18408;DHT22;9330;52.210;21.174;2023-03-01T05:09:24;-4.00;99.90
18408;DHT22;9330;52.210;21.174;2023-03-01T05:11:51;-4.00;99.90
18408;DHT22;9330;52.210;21.174;2023-03-01T05:14:19;-4.00;99.90
18408;DHT22;9330;52.210;21.174;2023-03-01T05:16:46;-4.00;99.90
18408;DHT22;9330;52.210;21.174;2023-03-01T05:19:12;-4.00;99.90
18408;DHT22;9330;52.210;21.174;2023-03-01T05:21:41;-3.90;99.90
18408;DHT22;9330;52.210;21.174;2023-03-01T05:24:21;-3.90;99.90
18408;DHT22;9330;52.210;21.174;2023-03-01T05:26:48;-3.90;99.90
18408;DHT22;9330;52.210;21.174;2023-03-01T05:29:18;-4.00;99.90
18408;DHT22;9330;52.210;21.174;2023-03-01T05:31:51;-3.90;99.90
18408;DHT22;9330;52.210;21.174;2023-03-01T05:34:19;-3.90;99.90
18408;DHT22;9330;52.210;21.174;2023-03-01T05:36:48;-4.00;99.90
18408;DHT22;9330;52.210;21.174;2023-03-01T05:39:16;-3.90;99.90
18408;DHT22;9330;52.210;21.174;2023-03-01T05:41:43;-3.90;99.90
18408;DHT22;9330;52.210;21.174;2023-03-01T05:44:10;-3.90;99.90
18408;DHT22;9330;52.210;21.174;2023-03-01T05:46:40;-3.80;99.90
18408;DHT22;9330;52.210;21.174;2023-03-01T05:49:06;-3.80;99.90
18408;DHT22;9330;52.210;21.174;2023-03-01T05:51:33;-3.80;99.90
18408;DHT22;9330;52.210;21.174;2023-03-01T05:54:00;-3.80;99.90
18408;DHT22;9330;52.210;21.174;2023-03-01T05:56:27;-3.70;99.90
18408;DHT22;9330;52.210;21.174;2023-03-01T05:58:54;-3.70;99.90
18408;DHT22;9330;52.210;21.174;2023-03-01T06:01:21;-3.60;99.90
18408;DHT22;9330;52.210;21.174;2023-03-01T06:03:49;-3.60;99.90
18408;DHT22;9330;52.210;21.174;2023-03-01T06:06:16;-3.50;99.90
18408;DHT22;9330;52.210;21.174;2023-03-01T06:08:43;-3.50;99.90
18408;DHT22;9330;52.210;21.174;2023-03-01T06:11:10;-3.40;99.90
18408;DHT22;9330;52.210;21.174;2023-03-01T06:13:36;-3.40;99.90
18408;DHT22;9330;52.210;21.174;2023-03-01T06:16:05;-3.00;99.90
18408;DHT22;9330;52.210;21.174;2023-03-01T06:18:32;-3.20;99.90
18408;DHT22;9330;52.210;21.174;2023-03-01T06:21:00;-3.10;99.90
18408;DHT22;9330;52.210;21.174;2023-03-01T06:23:27;-3.00;99.90
18408;DHT22;9330;52.210;21.174;2023-03-01T06:25:54;-2.90;99.90
18408;DHT22;9330;52.210;21.174;2023-03-01T06:28:21;-2.80;99.90
18408;DHT22;9330;52.210;21.174;2023-03-01T06:30:49;-2.80;99.90
18408;DHT22;9330;52.210;21.174;2023-03-01T06:33:17;-2.60;99.90
18408;DHT22;9330;52.210;21.174;2023-03-01T06:35:45;-2.60;99.90
18408;DHT22;9330;52.210;21.174;2023-03-01T06:38:13;-2.50;99.90
18408;DHT22;9330;52.210;21.174;2023-03-01T06:40:42;-2.40;99.90
18408;DHT22;9330;52.210;21.174;2023-03-01T06:43:09;-2.30;99.90
18408;DHT22;9330;52.210;21.174;2023-03-01T06:45:36;-2.20;99.90
18408;DHT22;9330;52.210;21.174;2023-03-01T06:48:04;-2.10;99.90
18408;DHT22;9330;52.210;21.174;2023-03-01T06:50:31;-1.80;99.90
18408;DHT22;9330;52.210;21.174;2023-03-01T06:52:59;-1.80;99.90
18408;DHT22;9330;52.210;21.174;2023-03-01T06:55:27;-1.70;99.90
18408;DHT22;9330;52.210;21.174;2023-03-01T06:57:54;-1.60;99.90
18408;DHT22;9330;52.210;21.174;2023-03-01T07:00:23;-1.40;99.90
18408;DHT22;9330;52.210;21.174;2023-03-01T07:02:51;-1.30;99.90
18408;DHT22;9330;52.210;21.174;2023-03-01T07:05:18;-0.80;99.90
18408;DHT22;9330;52.210;21.174;2023-03-01T07:07:44;-1.00;99.90
18408;DHT22;9330;52.210;21.174;2023-03-01T07:10:12;-1.00;99.90
18408;DHT22;9330;52.210;21.174;2023-03-01T07:12:40;-0.80;99.90
18408;DHT22;9330;52.210;21.174;2023-03-01T07:15:09;-0.70;99.90
18408;DHT22;9330;52.210;21.174;2023-03-01T07:17:36;-0.50;99.90
18408;DHT22;9330;52.210;21.174;2023-03-01T07:20:03;-0.40;99.90
18408;DHT22;9330;52.210;21.174;2023-03-01T07:22:30;-0.30;99.90
18408;DHT22;9330;52.210;21.174;2023-03-01T07:24:57;-0.20;99.90
18408;DHT22;9330;52.210;21.174;2023-03-01T07:27:24;-0.10;99.90
18408;DHT22;9330;52.210;21.174;2023-03-01T07:29:52;0.00;99.90
18408;DHT22;9330;52.210;21.174;2023-03-01T07:32:19;0.10;99.90
18408;DHT22;9330;52.210;21.174;2023-03-01T07:34:46;0.10;99.90
18408;DHT22;9330;52.210;21.174;2023-03-01T07:37:13;0.30;99.90
18408;DHT22;9330;52.210;21.174;2023-03-01T07:39:40;0.40;99.90
18408;DHT22;9330;52.210;21.174;2023-03-01T07:42:08;0.50;99.90
18408;DHT22;9330;52.210;21.174;2023-03-01T07:44:34;0.60;99.90
18408;DHT22;9330;52.210;21.174;2023-03-01T07:47:03;0.70;99.90
18408;DHT22;9330;52.210;21.174;2023-03-01T07:49:30;0.80;99.90
18408;DHT22;9330;52.210;21.174;2023-03-01T07:51:57;1.00;99.90
18408;DHT22;9330;52.210;21.174;2023-03-01T07:54:24;1.00;99.90
18408;DHT22;9330;52.210;21.174;2023-03-01T07:56:51;1.20;99.90
18408;DHT22;9330;52.210;21.174;2023-03-01T07:59:20;1.30;99.90
18408;DHT22;9330;52.210;21.174;2023-03-01T08:01:49;1.50;99.90
18408;DHT22;9330;52.210;21.174;2023-03-01T08:04:17;1.60;99.90
18408;DHT22;9330;52.210;21.174;2023-03-01T08:06:44;1.70;99.90
18408;DHT22;9330;52.210;21.174;2023-03-01T08:09:10;2.10;99.90
18408;DHT22;9330;52.210;21.174;2023-03-01T08:11:37;2.10;99.90
18408;DHT22;9330;52.210;21.174;2023-03-01T08:14:05;2.30;99.90
18408;DHT22;9330;52.210;21.174;2023-03-01T08:16:34;2.70;99.90
18408;DHT22;9330;52.210;21.174;2023-03-01T08:19:04;2.80;99.90
18408;DHT22;9330;52.210;21.174;2023-03-01T08:21:32;2.90;99.90
18408;DHT22;9330;52.210;21.174;2023-03-01T08:24:00;3.00;99.90
18408;DHT22;9330;52.210;21.174;2023-03-01T08:26:27;3.40;99.90
18408;DHT22;9330;52.210;21.174;2023-03-01T08:28:54;3.50;99.90
18408;DHT22;9330;52.210;21.174;2023-03-01T08:31:23;3.60;99.90
18408;DHT22;9330;52.210;21.174;2023-03-01T08:33:51;3.80;99.90
18408;DHT22;9330;52.210;21.174;2023-03-01T08:36:21;3.90;99.90
18408;DHT22;9330;52.210;21.174;2023-03-01T08:38:49;4.00;99.90
18408;DHT22;9330;52.210;21.174;2023-03-01T08:41:16;4.10;99.90
18408;DHT22;9330;52.210;21.174;2023-03-01T08:43:43;4.40;99.90
18408;DHT22;9330;52.210;21.174;2023-03-01T08:46:10;4.70;99.90
18408;DHT22;9330;52.210;21.174;2023-03-01T08:48:37;4.90;99.90
18408;DHT22;9330;52.210;21.174;2023-03-01T08:51:08;4.90;99.90
18408;DHT22;9330;52.210;21.174;2023-03-01T08:53:35;4.90;99.90
18408;DHT22;9330;52.210;21.174;2023-03-01T08:56:04;4.80;99.90
18408;DHT22;9330;52.210;21.174;2023-03-01T08:58:31;4.70;99.90
18408;DHT22;9330;52.210;21.174;2023-03-01T09:00:58;4.70;99.90
18408;DHT22;9330;52.210;21.174;2023-03-01T09:03:26;4.90;99.90
18408;DHT22;9330;52.210;21.174;2023-03-01T09:05:53;4.90;99.90
18408;DHT22;9330;52.210;21.174;2023-03-01T09:08:26;4.90;99.90
18408;DHT22;9330;52.210;21.174;2023-03-01T09:10:53;4.80;99.90
18408;DHT22;9330;52.210;21.174;2023-03-01T09:13:21;4.80;99.90
18408;DHT22;9330;52.210;21.174;2023-03-01T09:15:49;5.10;99.90
18408;DHT22;9330;52.210;21.174;2023-03-01T09:18:16;5.00;99.90
18408;DHT22;9330;52.210;21.174;2023-03-01T09:20:42;5.00;99.90
18408;DHT22;9330;52.210;21.174;2023-03-01T09:23:09;4.70;99.90
18408;DHT22;9330;52.210;21.174;2023-03-01T09:25:36;4.60;99.90
18408;DHT22;9330;52.210;21.174;2023-03-01T09:28:03;4.50;99.90
18408;DHT22;9330;52.210;21.174;2023-03-01T09:30:31;4.40;99.90
18408;DHT22;9330;52.210;21.174;2023-03-01T09:32:58;4.60;99.90
18408;DHT22;9330;52.210;21.174;2023-03-01T09:35:25;4.50;99.90
18408;DHT22;9330;52.210;21.174;2023-03-01T09:37:52;4.30;99.90
18408;DHT22;9330;52.210;21.174;2023-03-01T09:40:20;4.40;99.90
18408;DHT22;9330;52.210;21.174;2023-03-01T09:42:53;4.40;99.90
18408;DHT22;9330;52.210;21.174;2023-03-01T09:45:27;4.40;99.90
18408;DHT22;9330;52.210;21.174;2023-03-01T09:47:57;4.30;99.90
18408;DHT22;9330;52.210;21.174;2023-03-01T09:50:34;4.40;99.90
18408;DHT22;9330;52.210;21.174;2023-03-01T09:53:04;4.50;99.90
18408;DHT22;9330;52.210;21.174;2023-03-01T09:55:36;4.40;99.90
18408;DHT22;9330;52.210;21.174;2023-03-01T09:58:22;4.40;99.90
18408;DHT22;9330;52.210;21.174;2023-03-01T10:00:52;4.60;99.90
18408;DHT22;9330;52.210;21.174;2023-03-01T10:03:26;4.50;99.90
18408;DHT22;9330;52.210;21.174;2023-03-01T10:06:01;4.40;99.90
18408;DHT22;9330;52.210;21.174;2023-03-01T10:08:34;4.40;99.90
18408;DHT22;9330;52.210;21.174;2023-03-01T10:11:08;4.40;99.90
18408;DHT22;9330;52.210;21.174;2023-03-01T10:13:46;4.60;99.90
18408;DHT22;9330;52.210;21.174;2023-03-01T10:16:17;4.60;99.90
18408;DHT22;9330;52.210;21.174;2023-03-01T10:18:52;4.80;99.90
18408;DHT22;9330;52.210;21.174;2023-03-01T10:21:20;4.70;99.90
18408;DHT22;9330;52.210;21.174;2023-03-01T10:23:50;4.80;99.90
18408;DHT22;9330;52.210;21.174;2023-03-01T10:26:33;4.80;99.90
18408;DHT22;9330;52.210;21.174;2023-03-01T10:29:06;4.80;99.90
18408;DHT22;9330;52.210;21.174;2023-03-01T10:31:39;4.90;99.90
18408;DHT22;9330;52.210;21.174;2023-03-01T10:34:13;5.00;99.90
18408;DHT22;9330;52.210;21.174;2023-03-01T10:36:42;5.00;99.90
18408;DHT22;9330;52.210;21.174;2023-03-01T10:39:15;5.00;99.90
18408;DHT22;9330;52.210;21.174;2023-03-01T10:41:56;5.20;99.90
18408;DHT22;9330;52.210;21.174;2023-03-01T10:44:50;5.10;99.90
18408;DHT22;9330;52.210;21.174;2023-03-01T10:47:19;5.10;99.90
18408;DHT22;9330;52.210;21.174;2023-03-01T10:49:54;5.20;99.90
18408;DHT22;9330;52.210;21.174;2023-03-01T10:52:25;5.10;99.90
18408;DHT22;9330;52.210;21.174;2023-03-01T10:54:54;5.30;99.90
18408;DHT22;9330;52.210;21.174;2023-03-01T10:57:30;5.30;99.90
18408;DHT22;9330;52.210;21.174;2023-03-01T11:00:16;5.30;99.90
18408;DHT22;9330;52.210;21.174;2023-03-01T11:02:47;5.40;99.90
18408;DHT22;9330;52.210;21.174;2023-03-01T11:05:21;5.50;99.90
18408;DHT22;9330;52.210;21.174;2023-03-01T11:07:51;5.50;99.90
18408;DHT22;9330;52.210;21.174;2023-03-01T11:10:21;5.70;99.90
18408;DHT22;9330;52.210;21.174;2023-03-01T11:12:48;5.60;99.90
18408;DHT22;9330;52.210;21.174;2023-03-01T11:15:22;5.60;99.90
18408;DHT22;9330;52.210;21.174;2023-03-01T11:17:50;5.70;99.90
18408;DHT22;9330;52.210;21.174;2023-03-01T11:20:25;5.70;99.90
18408;DHT22;9330;52.210;21.174;2023-03-01T11:22:54;5.80;99.90
18408;DHT22;9330;52.210;21.174;2023-03-01T11:25:24;5.80;99.90
18408;DHT22;9330;52.210;21.174;2023-03-01T11:27:53;6.10;99.90
18408;DHT22;9330;52.210;21.174;2023-03-01T11:30:23;6.10;99.90
18408;DHT22;9330;52.210;21.174;2023-03-01T11:33:01;6.10;99.90
18408;DHT22;9330;52.210;21.174;2023-03-01T11:35:32;6.10;99.90
18408;DHT22;9330;52.210;21.174;2023-03-01T11:38:13;6.20;99.90
18408;DHT22;9330;52.210;21.174;2023-03-01T11:40:45;6.30;99.90
18408;DHT22;9330;52.210;21.174;2023-03-01T11:43:19;6.00;99.90
18408;DHT22;9330;52.210;21.174;2023-03-01T11:48:53;6.40;99.90
18408;DHT22;9330;52.210;21.174;2023-03-01T11:51:41;6.40;99.90
18408;DHT22;9330;52.210;21.174;2023-03-01T11:54:27;6.50;99.90
18408;DHT22;9330;52.210;21.174;2023-03-01T11:56:59;6.50;99.90
18408;DHT22;9330;52.210;21.174;2023-03-01T11:59:49;6.60;99.90
18408;DHT22;9330;52.210;21.174;2023-03-01T12:02:40;6.60;99.90
18408;DHT22;9330;52.210;21.174;2023-03-01T12:05:23;6.70;99.90
18408;DHT22;9330;52.210;21.174;2023-03-01T12:07:58;6.80;99.90
18408;DHT22;9330;52.210;21.174;2023-03-01T12:10:30;6.90;99.90
18408;DHT22;9330;52.210;21.174;2023-03-01T12:16:07;7.10;99.90
18408;DHT22;9330;52.210;21.174;2023-03-01T12:18:47;7.30;99.90
18408;DHT22;9330;52.210;21.174;2023-03-01T12:21:24;7.40;99.90
18408;DHT22;9330;52.210;21.174;2023-03-01T12:24:32;7.70;99.90
18408;DHT22;9330;52.210;21.174;2023-03-01T12:27:21;7.70;99.90
18408;DHT22;9330;52.210;21.174;2023-03-01T12:29:59;8.20;99.90
18408;DHT22;9330;52.210;21.174;2023-03-01T12:32:42;8.30;99.90
18408;DHT22;9330;52.210;21.174;2023-03-01T12:35:30;8.30;99.90
18408;DHT22;9330;52.210;21.174;2023-03-01T12:38:10;8.20;99.90
18408;DHT22;9330;52.210;21.174;2023-03-01T12:43:47;8.00;99.90
18408;DHT22;9330;52.210;21.174;2023-03-01T12:46:32;7.90;99.90
18408;DHT22;9330;52.210;21.174;2023-03-01T12:49:06;7.70;99.90
18408;DHT22;9330;52.210;21.174;2023-03-01T12:51:35;7.70;99.90
18408;DHT22;9330;52.210;21.174;2023-03-01T12:54:11;7.70;99.90
18408;DHT22;9330;52.210;21.174;2023-03-01T12:56:42;7.60;99.90
18408;DHT22;9330;52.210;21.174;2023-03-01T12:59:21;7.50;99.90
18408;DHT22;9330;52.210;21.174;2023-03-01T13:01:54;7.50;99.90
18408;DHT22;9330;52.210;21.174;2023-03-01T13:04:40;7.50;99.90
18408;DHT22;9330;52.210;21.174;2023-03-01T13:07:24;7.40;99.90
18408;DHT22;9330;52.210;21.174;2023-03-01T13:10:06;7.40;99.90
18408;DHT22;9330;52.210;21.174;2023-03-01T13:13:10;7.50;99.90
18408;DHT22;9330;52.210;21.174;2023-03-01T13:15:39;7.50;99.90
18408;DHT22;9330;52.210;21.174;2023-03-01T13:18:28;7.40;99.90
18408;DHT22;9330;52.210;21.174;2023-03-01T13:20:56;7.40;99.90
18408;DHT22;9330;52.210;21.174;2023-03-01T13:23:26;7.30;99.90
18408;DHT22;9330;52.210;21.174;2023-03-01T13:26:06;7.30;99.90
18408;DHT22;9330;52.210;21.174;2023-03-01T13:32:00;7.20;99.90
18408;DHT22;9330;52.210;21.174;2023-03-01T13:34:51;7.20;99.90
18408;DHT22;9330;52.210;21.174;2023-03-01T13:37:21;7.20;99.90
18408;DHT22;9330;52.210;21.174;2023-03-01T13:39:48;7.10;99.90
18408;DHT22;9330;52.210;21.174;2023-03-01T13:42:52;7.20;99.90
18408;DHT22;9330;52.210;21.174;2023-03-01T13:45:38;7.10;99.90
18408;DHT22;9330;52.210;21.174;2023-03-01T13:48:10;7.20;99.90
18408;DHT22;9330;52.210;21.174;2023-03-01T13:50:45;7.20;99.90
18408;DHT22;9330;52.210;21.174;2023-03-01T13:53:16;7.30;99.90
18408;DHT22;9330;52.210;21.174;2023-03-01T13:55:46;7.40;99.90
18408;DHT22;9330;52.210;21.174;2023-03-01T13:58:18;7.60;99.90
18408;DHT22;9330;52.210;21.174;2023-03-01T14:00:47;7.50;99.90
18408;DHT22;9330;52.210;21.174;2023-03-01T14:03:16;7.50;99.90
18408;DHT22;9330;52.210;21.174;2023-03-01T14:05:57;7.50;99.90
18408;DHT22;9330;52.210;21.174;2023-03-01T14:08:28;7.40;99.90
18408;DHT22;9330;52.210;21.174;2023-03-01T14:11:33;7.50;99.90
18408;DHT22;9330;52.210;21.174;2023-03-01T14:14:37;7.20;99.90
18408;DHT22;9330;52.210;21.174;2023-03-01T14:17:32;7.00;99.90
18408;DHT22;9330;52.210;21.174;2023-03-01T14:20:07;7.00;99.90
18408;DHT22;9330;52.210;21.174;2023-03-01T14:22:36;6.90;99.90
18408;DHT22;9330;52.210;21.174;2023-03-01T14:25:06;6.80;99.90
18408;DHT22;9330;52.210;21.174;2023-03-01T14:27:36;6.80;99.90
18408;DHT22;9330;52.210;21.174;2023-03-01T14:30:12;6.70;99.90
18408;DHT22;9330;52.210;21.174;2023-03-01T14:32:42;6.80;99.90
18408;DHT22;9330;52.210;21.174;2023-03-01T14:35:20;6.80;99.90
18408;DHT22;9330;52.210;21.174;2023-03-01T14:37:47;6.80;99.90
18408;DHT22;9330;52.210;21.174;2023-03-01T14:40:22;6.90;99.90
18408;DHT22;9330;52.210;21.174;2023-03-01T14:42:50;6.80;99.90
18408;DHT22;9330;52.210;21.174;2023-03-01T14:45:17;6.80;99.90
18408;DHT22;9330;52.210;21.174;2023-03-01T14:47:47;6.90;99.90
18408;DHT22;9330;52.210;21.174;2023-03-01T14:50:26;6.80;99.90
18408;DHT22;9330;52.210;21.174;2023-03-01T14:52:55;6.90;99.90
18408;DHT22;9330;52.210;21.174;2023-03-01T14:55:27;6.90;99.90
18408;DHT22;9330;52.210;21.174;2023-03-01T14:57:56;6.90;99.90
18408;DHT22;9330;52.210;21.174;2023-03-01T15:00:26;6.80;99.90
18408;DHT22;9330;52.210;21.174;2023-03-01T15:02:56;6.80;99.90
18408;DHT22;9330;52.210;21.174;2023-03-01T15:05:28;6.80;99.90
18408;DHT22;9330;52.210;21.174;2023-03-01T15:07:56;6.80;99.90
18408;DHT22;9330;52.210;21.174;2023-03-01T15:10:26;6.80;99.90
18408;DHT22;9330;52.210;21.174;2023-03-01T15:12:53;6.80;99.90
18408;DHT22;9330;52.210;21.174;2023-03-01T15:15:33;6.80;99.90
18408;DHT22;9330;52.210;21.174;2023-03-01T15:18:04;6.70;99.90
18408;DHT22;9330;52.210;21.174;2023-03-01T15:20:33;6.70;99.90
18408;DHT22;9330;52.210;21.174;2023-03-01T15:23:02;6.80;99.90
18408;DHT22;9330;52.210;21.174;2023-03-01T15:25:30;6.60;99.90
18408;DHT22;9330;52.210;21.174;2023-03-01T15:28:00;6.50;99.90
18408;DHT22;9330;52.210;21.174;2023-03-01T15:30:30;6.40;99.90
18408;DHT22;9330;52.210;21.174;2023-03-01T15:33:36;6.40;99.90
18408;DHT22;9330;52.210;21.174;2023-03-01T15:36:31;6.20;99.90
18408;DHT22;9330;52.210;21.174;2023-03-01T15:38:59;6.30;99.90
18408;DHT22;9330;52.210;21.174;2023-03-01T15:41:27;6.10;99.90
18408;DHT22;9330;52.210;21.174;2023-03-01T15:43:56;6.10;99.90
18408;DHT22;9330;52.210;21.174;2023-03-01T15:46:28;5.90;99.90
18408;DHT22;9330;52.210;21.174;2023-03-01T15:49:00;5.90;99.90
18408;DHT22;9330;52.210;21.174;2023-03-01T15:51:31;6.00;99.90
18408;DHT22;9330;52.210;21.174;2023-03-01T15:54:00;5.70;99.90
18408;DHT22;9330;52.210;21.174;2023-03-01T15:56:28;5.60;99.90
18408;DHT22;9330;52.210;21.174;2023-03-01T15:58:59;5.70;99.90
18408;DHT22;9330;52.210;21.174;2023-03-01T16:01:26;5.50;99.90
18408;DHT22;9330;52.210;21.174;2023-03-01T16:03:53;5.40;99.90
18408;DHT22;9330;52.210;21.174;2023-03-01T16:06:23;5.40;99.90
18408;DHT22;9330;52.210;21.174;2023-03-01T16:08:50;5.30;99.90
18408;DHT22;9330;52.210;21.174;2023-03-01T16:11:18;5.30;99.90
18408;DHT22;9330;52.210;21.174;2023-03-01T16:13:46;5.10;99.90
18408;DHT22;9330;52.210;21.174;2023-03-01T16:16:14;5.00;99.90
18408;DHT22;9330;52.210;21.174;2023-03-01T16:18:43;4.90;99.90